createdAt,value
2023-03-15T00:00:08.910Z,99168.53
2023-03-15T00:02:35.696Z,99169.34
2023-03-15T00:05:02.880Z,99175.69
2023-03-15T00:07:29.746Z,99178.84
2023-03-15T00:09:56.328Z,99190.94
2023-03-15T00:12:23.153Z,99185.66
2023-03-15T00:14:52.036Z,99196.06
2023-03-15T00:17:18.410Z,99201.72
2023-03-15T00:19:44.959Z,99209.09
2023-03-15T00:22:12.037Z,99211.72
2023-03-15T00:24:38.418Z,99215.59
2023-03-15T00:27:05.143Z,99217.97
2023-03-15T00:29:32.631Z,99222.53
2023-03-15T00:32:00.454Z,99230.94
2023-03-15T00:34:26.846Z,99238.84
2023-03-15T00:36:53.394Z,99246.28
2023-03-15T00:39:20.774Z,99259.19
2023-03-15T00:41:47.637Z,99259.19
2023-03-15T00:44:14.310Z,99281.69
2023-03-15T00:46:43.244Z,99283.09
2023-03-15T00:49:10.222Z,99280.06
2023-03-15T00:51:36.784Z,99285.94
2023-03-15T00:54:03.424Z,99297.81
2023-03-15T00:56:30.318Z,99298.31
2023-03-15T00:58:58.609Z,99308.59
2023-03-15T01:01:28.898Z,99324.41
2023-03-15T01:03:55.776Z,99339.38
2023-03-15T01:06:25.405Z,99353.94
2023-03-15T01:08:52.478Z,99363.91
2023-03-15T01:11:23.077Z,99371.97
2023-03-15T01:13:53.386Z,99368.63
2023-03-15T01:16:20.837Z,99376.91
2023-03-15T01:18:47.561Z,99390.06
2023-03-15T01:21:15.923Z,99393.53
2023-03-15T01:23:42.461Z,99407.28
2023-03-15T01:26:12.310Z,99415.66
2023-03-15T01:28:38.845Z,99422.66
2023-03-15T01:31:05.608Z,99420.03
2023-03-15T01:33:32.233Z,99427.47
2023-03-15T01:36:04.802Z,99416.94
2023-03-15T01:38:31.880Z,99420.50
2023-03-15T01:40:58.416Z,99421.44
2023-03-15T01:43:26.969Z,99409.97
2023-03-15T01:45:59.699Z,99405.91
2023-03-15T01:48:39.719Z,99398.25
2023-03-15T01:51:11.706Z,99374.03
2023-03-15T01:53:42.582Z,99363.50
2023-03-15T01:56:09.626Z,99366.34
2023-03-15T01:58:38.414Z,99381.91
2023-03-15T02:01:05.216Z,99379.78
2023-03-15T02:03:38.638Z,99378.44
2023-03-15T02:06:09.311Z,99375.81
2023-03-15T02:08:42.374Z,99382.47
2023-03-15T02:11:08.827Z,99383.06
2023-03-15T02:13:36.111Z,99379.22
2023-03-15T02:16:04.005Z,99387.31
2023-03-15T02:18:30.770Z,99407.31
2023-03-15T02:21:16.403Z,99417.00
2023-03-15T02:23:44.420Z,99425.75
2023-03-15T02:26:55.166Z,99436.88
2023-03-15T02:29:25.768Z,99438.53
2023-03-15T02:31:53.632Z,99451.69
2023-03-15T02:34:19.969Z,99429.72
2023-03-15T02:36:46.299Z,99426.91
2023-03-15T02:39:21.489Z,99432.16
2023-03-15T02:41:58.836Z,99436.63
2023-03-15T02:44:34.771Z,99433.69
2023-03-15T02:47:13.687Z,99441.50
2023-03-15T02:49:45.131Z,99454.03
2023-03-15T02:52:12.239Z,99463.16
2023-03-15T02:54:38.652Z,99476.09
2023-03-15T02:57:05.354Z,99476.13
2023-03-15T02:59:31.842Z,99498.75
2023-03-15T03:01:58.264Z,99495.63
2023-03-15T03:04:25.001Z,99499.94
2023-03-15T03:06:51.620Z,99514.88
2023-03-15T03:09:18.030Z,99521.22
2023-03-15T03:11:44.561Z,99521.69
2023-03-15T03:14:11.318Z,99520.63
2023-03-15T03:16:39.139Z,99516.94
2023-03-15T03:19:05.551Z,99518.59
2023-03-15T03:21:32.166Z,99513.81
2023-03-15T03:23:58.625Z,99508.06
2023-03-15T03:26:25.041Z,99507.47
2023-03-15T03:28:51.468Z,99510.47
2023-03-15T03:31:20.550Z,99516.34
2023-03-15T03:33:47.295Z,99513.22
2023-03-15T03:36:14.155Z,99520.16
2023-03-15T03:38:42.723Z,99530.22
2023-03-15T03:41:13.300Z,99538.94
2023-03-15T03:43:40.236Z,99530.78
2023-03-15T03:46:07.047Z,99541.44
2023-03-15T03:48:34.474Z,99542.53
2023-03-15T03:51:01.213Z,99547.28
2023-03-15T03:53:27.968Z,99546.09
2023-03-15T03:55:54.343Z,99555.28
2023-03-15T03:58:21.715Z,99562.66
2023-03-15T04:00:49.169Z,99565.78
2023-03-15T04:03:15.820Z,99576.88
2023-03-15T04:05:42.232Z,99588.59
2023-03-15T04:08:08.928Z,99603.75
2023-03-15T04:10:35.401Z,99611.50
2023-03-15T04:13:02.654Z,99627.41
2023-03-15T04:15:29.390Z,99621.94
2023-03-15T04:17:55.938Z,99621.81
2023-03-15T04:20:23.855Z,99619.75
2023-03-15T04:22:51.945Z,99619.84
2023-03-15T04:25:21.796Z,99631.09
2023-03-15T04:27:49.373Z,99625.47
2023-03-15T04:30:16.280Z,99640.28
2023-03-15T04:32:42.841Z,99645.53
2023-03-15T04:35:09.483Z,99649.84
2023-03-15T04:37:37.467Z,99658.91
2023-03-15T04:40:04.304Z,99658.00
2023-03-15T04:42:30.707Z,99673.38
2023-03-15T04:44:57.106Z,99672.75
2023-03-15T04:47:23.497Z,99672.50
2023-03-15T04:49:50.016Z,99682.56
2023-03-15T04:52:16.414Z,99690.66
2023-03-15T04:54:42.841Z,99683.22
2023-03-15T04:57:09.533Z,99697.66
2023-03-15T04:59:36.282Z,99699.53
2023-03-15T05:02:03.944Z,99711.63
2023-03-15T05:04:32.752Z,99708.69
2023-03-15T05:06:59.570Z,99714.06
2023-03-15T05:09:26.243Z,99323.00
2023-03-15T05:11:53.992Z,99091.13
2023-03-15T05:14:20.400Z,99085.38
2023-03-15T05:16:47.141Z,99079.75
2023-03-15T05:19:13.658Z,99077.75
2023-03-15T05:21:40.816Z,99068.09
2023-03-15T05:24:07.280Z,99066.78
2023-03-15T05:26:34.027Z,99067.03
2023-03-15T05:29:00.357Z,99065.34
2023-03-15T05:31:27.058Z,99062.00
2023-03-15T05:33:53.700Z,99055.69
2023-03-15T05:36:20.240Z,99048.75
2023-03-15T05:38:46.640Z,99016.56
2023-03-15T05:41:13.102Z,99013.09
2023-03-15T05:43:39.614Z,99009.75
2023-03-15T05:46:06.032Z,99020.25
2023-03-15T05:48:32.488Z,99005.91
2023-03-15T05:50:58.889Z,99007.47
2023-03-15T05:53:25.373Z,99009.97
2023-03-15T05:55:52.072Z,99009.75
2023-03-15T05:58:19.013Z,99014.28
2023-03-15T06:00:45.438Z,99015.25
2023-03-15T06:03:11.861Z,99022.97
2023-03-15T06:05:38.264Z,99024.09
2023-03-15T06:08:04.930Z,99025.38
2023-03-15T06:10:31.707Z,99027.16
2023-03-15T06:12:58.754Z,99028.97
2023-03-15T06:15:26.073Z,99034.00
2023-03-15T06:17:53.003Z,99041.97
2023-03-15T06:20:19.650Z,99037.91
2023-03-15T06:22:46.054Z,99042.31
2023-03-15T06:25:12.715Z,99063.75
2023-03-15T06:27:39.472Z,99073.41
2023-03-15T06:30:09.237Z,99077.34
2023-03-15T06:32:36.471Z,99090.19
2023-03-15T06:35:05.025Z,99092.06
2023-03-15T06:37:35.310Z,99098.66
2023-03-15T06:40:06.627Z,99119.25
2023-03-15T06:42:33.649Z,99133.44
2023-03-15T06:45:00.416Z,99155.66
2023-03-15T06:47:27.237Z,99185.34
2023-03-15T06:49:55.382Z,99212.38
2023-03-15T06:52:25.140Z,99239.72
2023-03-15T06:54:52.190Z,99268.59
2023-03-15T06:57:18.990Z,99288.44
2023-03-15T06:59:45.409Z,99296.69
2023-03-15T07:02:19.067Z,99304.78
2023-03-15T07:04:45.838Z,99314.47
2023-03-15T07:07:13.969Z,99321.66
2023-03-15T07:09:41.097Z,99325.69
2023-03-15T07:12:09.797Z,99335.84
2023-03-15T07:14:36.877Z,99327.41
2023-03-15T07:17:03.570Z,99333.97
2023-03-15T07:19:30.108Z,99320.53
2023-03-15T07:21:56.820Z,99326.53
2023-03-15T07:24:23.694Z,99325.41
2023-03-15T07:26:53.227Z,99330.81
2023-03-15T07:29:19.711Z,99330.16
2023-03-15T07:31:46.245Z,99330.81
2023-03-15T07:34:12.879Z,99312.66
2023-03-15T07:36:43.587Z,99294.63
2023-03-15T07:39:14.831Z,99256.41
2023-03-15T07:41:41.630Z,99245.59
2023-03-15T07:44:08.322Z,99250.28
2023-03-15T07:46:34.831Z,99236.94
2023-03-15T07:49:02.751Z,99230.84
2023-03-15T07:51:32.243Z,99216.66
2023-03-15T07:53:58.862Z,99187.19
2023-03-15T07:56:26.298Z,99171.50
2023-03-15T07:58:54.180Z,99177.09
2023-03-15T08:01:20.713Z,99145.13
2023-03-15T08:03:47.688Z,99124.66
2023-03-15T08:06:14.067Z,99099.41
2023-03-15T08:08:42.068Z,99094.25
2023-03-15T08:11:08.542Z,99082.66
2023-03-15T08:13:35.253Z,99066.22
2023-03-15T08:16:02.145Z,99058.53
2023-03-15T08:18:28.757Z,99032.00
2023-03-15T08:20:55.557Z,99009.56
2023-03-15T08:23:22.278Z,99001.59
2023-03-15T08:25:50.448Z,98995.13
2023-03-15T08:28:17.202Z,98950.88
2023-03-15T08:30:44.014Z,98943.66
2023-03-15T08:33:10.511Z,98947.06
2023-03-15T08:35:37.155Z,98952.00
2023-03-15T08:38:04.289Z,98935.47
2023-03-15T08:40:31.794Z,98928.47
2023-03-15T08:42:59.940Z,98931.59
2023-03-15T08:45:27.316Z,98927.97
2023-03-15T08:48:02.854Z,98917.34
2023-03-15T08:50:29.695Z,98914.03
2023-03-15T08:52:56.235Z,98912.72
2023-03-15T08:55:23.000Z,98910.72
2023-03-15T08:57:49.609Z,98911.72
2023-03-15T09:00:17.885Z,98917.06
2023-03-15T09:02:44.438Z,98916.84
2023-03-15T09:05:10.967Z,98914.41
2023-03-15T09:07:41.336Z,98912.94
2023-03-15T09:10:10.074Z,98916.31
2023-03-15T09:12:36.730Z,98922.59
2023-03-15T09:15:03.241Z,98917.00
2023-03-15T09:17:29.827Z,98921.53
2023-03-15T09:19:56.597Z,98939.25
2023-03-15T09:22:38.467Z,98930.41
2023-03-15T09:25:06.153Z,98925.72
2023-03-15T09:27:33.599Z,98944.22
2023-03-15T09:30:00.208Z,98940.63
2023-03-15T09:32:26.848Z,98944.59
2023-03-15T09:34:53.572Z,98941.59
2023-03-15T09:37:20.516Z,98936.63
2023-03-15T09:39:47.240Z,98931.91
2023-03-15T09:42:22.566Z,98929.88
2023-03-15T09:44:56.005Z,98937.84
2023-03-15T09:47:47.031Z,98939.56
2023-03-15T09:50:22.493Z,98947.59
2023-03-15T09:52:53.545Z,98943.41
2023-03-15T09:55:27.270Z,98942.06
2023-03-15T09:57:56.696Z,98946.56
2023-03-15T10:00:39.532Z,98945.28
2023-03-15T10:03:09.424Z,98956.88
2023-03-15T10:05:46.438Z,98957.03
2023-03-15T10:08:16.715Z,98949.72
2023-03-15T10:10:57.081Z,98947.88
2023-03-15T10:14:03.333Z,98953.19
2023-03-15T10:16:39.905Z,98941.28
2023-03-15T10:19:44.106Z,98941.44
2023-03-15T10:22:13.911Z,98939.94
2023-03-15T10:25:11.274Z,98937.97
2023-03-15T10:27:43.647Z,98937.00
2023-03-15T10:30:19.816Z,98937.47
2023-03-15T10:32:58.555Z,98937.13
2023-03-15T10:35:25.881Z,98932.47
2023-03-15T10:37:52.337Z,98935.78
2023-03-15T10:40:41.073Z,98921.88
2023-03-15T10:43:17.684Z,98921.38
2023-03-15T10:45:47.879Z,98918.06
2023-03-15T10:48:20.234Z,98924.53
2023-03-15T10:50:50.803Z,98927.47
2023-03-15T10:53:20.860Z,98933.13
2023-03-15T10:55:48.385Z,98922.97
2023-03-15T10:58:25.889Z,98921.97
2023-03-15T11:01:04.702Z,98920.25
2023-03-15T11:03:31.726Z,98923.84
2023-03-15T11:05:59.800Z,98919.28
2023-03-15T11:08:39.987Z,98914.34
2023-03-15T11:11:07.565Z,98923.81
2023-03-15T11:13:36.810Z,98912.00
2023-03-15T11:16:29.214Z,98911.31
2023-03-15T11:18:59.913Z,98905.47
2023-03-15T11:21:31.280Z,98909.66
2023-03-15T11:23:59.041Z,98904.03
2023-03-15T11:26:32.671Z,98899.31
2023-03-15T11:29:05.954Z,98893.66
2023-03-15T11:31:33.621Z,98898.16
2023-03-15T11:34:09.137Z,98901.50
2023-03-15T11:36:41.530Z,98891.53
2023-03-15T11:39:13.614Z,98897.84
2023-03-15T11:41:47.652Z,98890.16
2023-03-15T11:44:39.208Z,98900.78
2023-03-15T11:47:09.358Z,98880.53
2023-03-15T11:49:57.401Z,98892.00
2023-03-15T11:52:27.101Z,98896.81
2023-03-15T11:54:58.338Z,98884.38
2023-03-15T11:57:43.093Z,98892.38
2023-03-15T12:00:49.001Z,98892.03
2023-03-15T12:03:31.593Z,98882.91
2023-03-15T12:06:23.444Z,98878.78
2023-03-15T12:08:54.612Z,98876.09
2023-03-15T12:11:20.951Z,98875.06
2023-03-15T12:14:03.417Z,98875.22
2023-03-15T12:16:33.383Z,98873.63
2023-03-15T12:19:10.923Z,98869.81
2023-03-15T12:21:44.627Z,98873.81
2023-03-15T12:24:30.561Z,98891.38
2023-03-15T12:27:22.493Z,98887.88
2023-03-15T12:29:58.603Z,98892.19
2023-03-15T12:32:25.842Z,98899.31
2023-03-15T12:34:54.838Z,98903.13
2023-03-15T12:37:32.201Z,98893.69
2023-03-15T12:40:17.509Z,98896.69
2023-03-15T12:42:43.948Z,98887.03
2023-03-15T12:45:16.684Z,98885.34
2023-03-15T12:47:49.968Z,98894.41
2023-03-15T12:50:44.228Z,98885.41
2023-03-15T12:53:27.170Z,98883.25
2023-03-15T12:56:06.234Z,98890.44
2023-03-15T12:58:39.044Z,98893.53
2023-03-15T13:01:07.557Z,98894.31
2023-03-15T13:03:36.047Z,98900.75
2023-03-15T13:06:19.139Z,98899.44
2023-03-15T13:08:57.220Z,98896.44
2023-03-15T13:11:43.650Z,98896.78
2023-03-15T13:14:33.837Z,98892.50
2023-03-15T13:17:34.846Z,98900.78
2023-03-15T13:20:36.903Z,98889.16
2023-03-15T13:23:21.834Z,98901.13
2023-03-15T13:26:17.289Z,98907.44
2023-03-15T13:28:49.574Z,98918.97
2023-03-15T13:31:23.399Z,98935.91
2023-03-15T13:33:52.564Z,98981.94
2023-03-15T13:36:19.562Z,99016.72
2023-03-15T13:38:50.540Z,99024.13
2023-03-15T13:41:22.007Z,99028.31
2023-03-15T13:43:52.139Z,99022.50
2023-03-15T13:46:20.790Z,99017.88
2023-03-15T13:48:49.429Z,99009.25
2023-03-15T13:51:46.600Z,99021.63
2023-03-15T13:54:28.829Z,99037.41
2023-03-15T13:56:57.066Z,99039.84
2023-03-15T13:59:28.367Z,99053.19
2023-03-15T14:01:56.889Z,99053.47
2023-03-15T14:04:24.911Z,99057.91
2023-03-15T14:07:02.945Z,99059.13
2023-03-15T14:09:30.817Z,99046.03
2023-03-15T14:12:07.398Z,99037.63
2023-03-15T14:14:46.788Z,99051.91
2023-03-15T14:17:25.963Z,99072.72
2023-03-15T14:20:04.524Z,99075.78
2023-03-15T14:22:31.120Z,99078.25
2023-03-15T14:24:59.910Z,99073.25
2023-03-15T14:27:27.759Z,99056.34
2023-03-15T14:30:00.099Z,99059.63
2023-03-15T14:32:35.196Z,99044.31
2023-03-15T14:35:19.709Z,99020.00
2023-03-15T14:37:49.088Z,99025.31
2023-03-15T14:40:20.078Z,98992.31
2023-03-15T14:42:47.986Z,98981.69
2023-03-15T14:45:15.730Z,98968.00
2023-03-15T14:47:56.693Z,98969.31
2023-03-15T14:50:29.483Z,98954.91
2023-03-15T14:52:57.324Z,98937.97
2023-03-15T14:55:28.668Z,98950.03
2023-03-15T14:57:55.403Z,98958.34
2023-03-15T15:00:22.557Z,98962.00
2023-03-15T15:02:52.660Z,98950.22
2023-03-15T15:05:27.947Z,98940.41
2023-03-15T15:08:12.672Z,98924.53
2023-03-15T15:10:41.075Z,98935.97
2023-03-15T15:13:14.692Z,98940.47
2023-03-15T15:15:54.712Z,98945.91
2023-03-15T15:18:27.530Z,98946.06
2023-03-15T15:20:55.369Z,98947.38
2023-03-15T15:23:29.047Z,98964.09
2023-03-15T15:26:06.753Z,98993.16
2023-03-15T15:28:36.880Z,99034.59
2023-03-15T15:31:06.046Z,99106.81
2023-03-15T15:33:32.593Z,99212.19
2023-03-15T15:35:59.355Z,99300.81
2023-03-15T15:38:31.690Z,99308.94
2023-03-15T15:40:58.356Z,99343.72
2023-03-15T15:43:25.550Z,99349.47
2023-03-15T15:45:52.318Z,99363.25
2023-03-15T15:48:18.988Z,99382.59
2023-03-15T15:50:45.498Z,99420.84
2023-03-15T15:53:16.986Z,99463.47
2023-03-15T15:55:44.338Z,99488.63
2023-03-15T15:58:12.593Z,99487.31
2023-03-15T16:00:40.252Z,99482.25
2023-03-15T16:03:13.254Z,99489.72
2023-03-15T16:05:39.750Z,99490.69
2023-03-15T16:08:07.101Z,99481.13
2023-03-15T16:10:33.592Z,99494.84
2023-03-15T16:12:59.990Z,99486.38
2023-03-15T16:15:26.468Z,99494.88
2023-03-15T16:17:53.049Z,99484.34
2023-03-15T16:20:22.585Z,99491.34
2023-03-15T16:22:52.786Z,99483.50
2023-03-15T16:25:28.222Z,99490.09
2023-03-15T16:27:56.784Z,99500.94
2023-03-15T16:30:29.432Z,99499.00
2023-03-15T16:32:56.857Z,99504.69
2023-03-15T16:35:32.840Z,99501.50
2023-03-15T16:38:05.550Z,99506.66
2023-03-15T16:40:34.675Z,99510.00
2023-03-15T16:43:01.375Z,99515.00
2023-03-15T16:45:28.092Z,99515.72
2023-03-15T16:47:54.605Z,99522.66
2023-03-15T16:50:21.264Z,99524.75
2023-03-15T16:52:52.436Z,99512.22
2023-03-15T16:55:24.428Z,99527.19
2023-03-15T16:57:52.274Z,99530.81
2023-03-15T17:00:19.314Z,99532.75
2023-03-15T17:02:50.673Z,99530.22
2023-03-15T17:05:17.302Z,99534.06
2023-03-15T17:07:44.103Z,99536.06
2023-03-15T17:10:19.893Z,99538.22
2023-03-15T17:12:46.642Z,99543.13
2023-03-15T17:15:13.360Z,99544.06
2023-03-15T17:17:39.991Z,99552.28
2023-03-15T17:20:08.414Z,99553.97
2023-03-15T17:22:34.862Z,99551.06
2023-03-15T17:25:01.377Z,99555.78
2023-03-15T17:27:38.128Z,99550.91
2023-03-15T17:30:26.244Z,99548.00
2023-03-15T17:32:53.187Z,99553.69
2023-03-15T17:35:27.593Z,99550.03
2023-03-15T17:37:54.519Z,99562.78
2023-03-15T17:40:31.605Z,99567.09
2023-03-15T17:43:00.950Z,99577.94
2023-03-15T17:45:33.364Z,99565.09
2023-03-15T17:48:03.136Z,99558.81
2023-03-15T17:50:32.521Z,99556.31
2023-03-15T17:53:05.379Z,99546.28
2023-03-15T17:55:32.789Z,99551.81
2023-03-15T17:58:02.552Z,99546.47
2023-03-15T18:00:29.516Z,99543.78
2023-03-15T18:02:56.758Z,99553.72
2023-03-15T18:05:26.288Z,99560.63
2023-03-15T18:08:00.620Z,99550.28
2023-03-15T18:10:33.684Z,99553.00
2023-03-15T18:13:00.082Z,99548.97
2023-03-15T18:15:26.608Z,99553.19
2023-03-15T18:17:53.140Z,99547.34
2023-03-15T18:20:20.346Z,99557.97
2023-03-15T18:22:46.988Z,99568.69
2023-03-15T18:25:26.010Z,99576.50
2023-03-15T18:27:53.307Z,99564.78
2023-03-15T18:30:24.963Z,99556.13
2023-03-15T18:32:52.684Z,99559.50
2023-03-15T18:35:25.044Z,99565.25
2023-03-15T18:37:51.965Z,99560.13
2023-03-15T18:40:20.044Z,99552.59
2023-03-15T18:42:47.048Z,99544.22
2023-03-15T18:45:20.911Z,99528.44
2023-03-15T18:47:48.214Z,99520.97
2023-03-15T18:50:16.112Z,99514.16
2023-03-15T18:52:45.817Z,99511.66
2023-03-15T18:55:16.049Z,99508.56
2023-03-15T18:57:43.039Z,99519.59
2023-03-15T19:00:12.310Z,99518.97
2023-03-15T19:02:44.381Z,99516.34
2023-03-15T19:05:14.844Z,99526.31
2023-03-15T19:07:42.143Z,99520.59
2023-03-15T19:10:11.638Z,99519.03
2023-03-15T19:12:38.288Z,99521.06
2023-03-15T19:15:05.429Z,99507.41
2023-03-15T19:17:31.851Z,99512.34
2023-03-15T19:19:58.664Z,99515.34
2023-03-15T19:22:26.363Z,99505.28
2023-03-15T19:24:52.879Z,99509.00
2023-03-15T19:27:19.347Z,99513.66
2023-03-15T19:29:45.759Z,99508.88
2023-03-15T19:32:12.181Z,99499.44
2023-03-15T19:34:40.328Z,99488.56
2023-03-15T19:37:08.116Z,99481.75
2023-03-15T19:39:35.747Z,99483.53
2023-03-15T19:42:02.101Z,99480.91
2023-03-15T19:44:28.468Z,99482.34
2023-03-15T19:46:54.895Z,99482.84
2023-03-15T19:49:21.654Z,99476.03
2023-03-15T19:51:47.989Z,99467.88
2023-03-15T19:54:14.588Z,99470.28
2023-03-15T19:56:41.387Z,99466.91
2023-03-15T19:59:08.601Z,99463.00
2023-03-15T20:01:35.004Z,99462.50
2023-03-15T20:04:01.617Z,99458.56
2023-03-15T20:06:28.497Z,99452.59
2023-03-15T20:08:55.066Z,99456.06
2023-03-15T20:11:21.481Z,99458.94
2023-03-15T20:13:48.257Z,99460.50
2023-03-15T20:16:14.802Z,99456.19
2023-03-15T20:18:41.251Z,99449.94
2023-03-15T20:21:07.658Z,99459.16
2023-03-15T20:23:34.009Z,99452.34
2023-03-15T20:26:10.749Z,99452.81
2023-03-15T20:28:40.945Z,99452.22
2023-03-15T20:31:15.676Z,99442.88
2023-03-15T20:33:43.549Z,99440.72
2023-03-15T20:36:10.105Z,99439.91
2023-03-15T20:38:37.339Z,99435.94
2023-03-15T20:41:04.821Z,99431.75
2023-03-15T20:43:31.208Z,99427.69
2023-03-15T20:45:57.947Z,99430.22
2023-03-15T20:48:24.454Z,99434.28
2023-03-15T20:50:50.904Z,99437.50
2023-03-15T20:53:20.393Z,99430.78
2023-03-15T20:55:46.822Z,99430.09
2023-03-15T20:58:13.474Z,99431.16
2023-03-15T21:00:41.224Z,99440.88
2023-03-15T21:03:11.706Z,99441.97
2023-03-15T21:05:38.131Z,99443.03
2023-03-15T21:08:04.543Z,99447.47
2023-03-15T21:10:31.134Z,99445.06
2023-03-15T21:12:57.463Z,99444.94
2023-03-15T21:15:23.828Z,99447.78
2023-03-15T21:17:50.467Z,99446.13
2023-03-15T21:20:17.878Z,99438.25
2023-03-15T21:22:44.354Z,99433.81
2023-03-15T21:25:11.366Z,99447.06
2023-03-15T21:27:37.738Z,99446.22
2023-03-15T21:30:04.635Z,99451.47
2023-03-15T21:32:33.468Z,99450.16
2023-03-15T21:34:59.940Z,99441.81
2023-03-15T21:37:26.266Z,99451.22
2023-03-15T21:39:52.828Z,99443.56
2023-03-15T21:42:19.813Z,99445.38
2023-03-15T21:44:49.003Z,99442.97
2023-03-15T21:47:15.812Z,99441.88
2023-03-15T21:49:42.359Z,99445.41
2023-03-15T21:52:08.705Z,99443.25
2023-03-15T21:54:35.528Z,99452.50
2023-03-15T21:57:01.914Z,99452.63
2023-03-15T21:59:28.402Z,99451.06
2023-03-15T22:01:55.932Z,99450.06
2023-03-15T22:04:23.960Z,99448.50
2023-03-15T22:06:51.022Z,99455.31
2023-03-15T22:09:17.584Z,99443.25
2023-03-15T22:11:43.869Z,99442.28
2023-03-15T22:14:15.580Z,99443.94
2023-03-15T22:16:42.005Z,99447.91
2023-03-15T22:19:08.669Z,99447.44
2023-03-15T22:21:35.291Z,99428.84
2023-03-15T22:24:01.920Z,99428.44
2023-03-15T22:26:28.278Z,99419.84
2023-03-15T22:28:54.641Z,99419.56
2023-03-15T22:31:21.073Z,99422.63
2023-03-15T22:33:47.821Z,99427.88
2023-03-15T22:36:14.142Z,99420.50
2023-03-15T22:38:40.572Z,99418.84
2023-03-15T22:41:10.003Z,99422.63
2023-03-15T22:43:37.866Z,99419.50
2023-03-15T22:46:04.427Z,99414.34
2023-03-15T22:48:30.995Z,99416.16
2023-03-15T22:51:01.232Z,99418.09
2023-03-15T22:53:28.829Z,99415.50
2023-03-15T22:55:55.254Z,99417.59
2023-03-15T22:58:21.869Z,99410.91
2023-03-15T23:00:48.484Z,99411.84
2023-03-15T23:03:14.926Z,99406.94
2023-03-15T23:05:41.283Z,99396.66
2023-03-15T23:08:07.672Z,99396.81
2023-03-15T23:10:34.818Z,99388.72
2023-03-15T23:13:01.627Z,99385.94
2023-03-15T23:15:28.840Z,99382.94
2023-03-15T23:17:56.091Z,99380.19
2023-03-15T23:20:25.413Z,99387.56
2023-03-15T23:22:52.042Z,99384.31
2023-03-15T23:25:20.677Z,99386.63
2023-03-15T23:27:47.663Z,99387.69
2023-03-15T23:30:15.183Z,99388.97
2023-03-15T23:32:42.150Z,99384.34
2023-03-15T23:35:42.573Z,99386.25
2023-03-15T23:38:08.968Z,99379.44
2023-03-15T23:40:35.435Z,99377.63
2023-03-15T23:43:04.374Z,99383.09
2023-03-15T23:45:30.726Z,99376.59
2023-03-15T23:47:58.007Z,99363.91
2023-03-15T23:50:25.644Z,99365.72
2023-03-15T23:52:53.871Z,99368.19
2023-03-15T23:55:21.138Z,99358.59
2023-03-15T23:57:48.321Z,99362.88
